sensor_id;sensor_type;location;lat;lon;timestamp;temperature;humidity
42755;DHT22;28407;51.830;5.684;2022-07-03T00:00:29;21.00;59.50
42755;DHT22;28407;51.830;5.684;2022-07-03T00:02:29;21.00;59.60
42755;DHT22;28407;51.830;5.684;2022-07-03T00:04:30;21.00;59.60
42755;DHT22;28407;51.830;5.684;2022-07-03T00:06:31;21.00;59.60
42755;DHT22;28407;51.830;5.684;2022-07-03T00:08:32;21.00;59.70
42755;DHT22;28407;51.830;5.684;2022-07-03T00:10:33;20.90;59.60
42755;DHT22;28407;51.830;5.684;2022-07-03T00:12:34;20.90;59.70
42755;DHT22;28407;51.830;5.684;2022-07-03T00:14:35;20.90;59.70
42755;DHT22;28407;51.830;5.684;2022-07-03T00:16:36;20.90;59.80
42755;DHT22;28407;51.830;5.684;2022-07-03T00:18:37;20.90;59.90
42755;DHT22;28407;51.830;5.684;2022-07-03T00:20:39;20.90;60.00
42755;DHT22;28407;51.830;5.684;2022-07-03T00:22:41;20.80;60.10
42755;DHT22;28407;51.830;5.684;2022-07-03T00:26:44;20.80;60.20
42755;DHT22;28407;51.830;5.684;2022-07-03T00:28:45;20.70;60.30
42755;DHT22;28407;51.830;5.684;2022-07-03T00:30:46;20.70;60.30
42755;DHT22;28407;51.830;5.684;2022-07-03T00:32:48;20.70;60.50
42755;DHT22;28407;51.830;5.684;2022-07-03T00:34:52;20.70;60.50
42755;DHT22;28407;51.830;5.684;2022-07-03T00:36:53;20.70;60.60
42755;DHT22;28407;51.830;5.684;2022-07-03T00:38:55;20.60;60.60
42755;DHT22;28407;51.830;5.684;2022-07-03T00:40:56;20.60;60.60
42755;DHT22;28407;51.830;5.684;2022-07-03T00:42:56;20.60;60.60
42755;DHT22;28407;51.830;5.684;2022-07-03T00:44:59;20.60;60.70
42755;DHT22;28407;51.830;5.684;2022-07-03T00:47:00;20.60;60.80
42755;DHT22;28407;51.830;5.684;2022-07-03T00:49:02;20.60;60.80
42755;DHT22;28407;51.830;5.684;2022-07-03T00:51:05;20.60;60.90
42755;DHT22;28407;51.830;5.684;2022-07-03T00:53:06;20.60;60.90
42755;DHT22;28407;51.830;5.684;2022-07-03T00:55:08;20.60;61.00
42755;DHT22;28407;51.830;5.684;2022-07-03T00:57:13;20.60;61.10
42755;DHT22;28407;51.830;5.684;2022-07-03T00:59:13;20.50;61.10
42755;DHT22;28407;51.830;5.684;2022-07-03T01:01:16;20.50;61.20
42755;DHT22;28407;51.830;5.684;2022-07-03T01:03:17;20.50;61.20
42755;DHT22;28407;51.830;5.684;2022-07-03T01:05:24;20.50;61.30
42755;DHT22;28407;51.830;5.684;2022-07-03T01:10:03;20.40;61.40
42755;DHT22;28407;51.830;5.684;2022-07-03T01:12:09;20.40;61.50
42755;DHT22;28407;51.830;5.684;2022-07-03T01:18:58;20.40;61.70
42755;DHT22;28407;51.830;5.684;2022-07-03T01:21:00;20.30;61.70
42755;DHT22;28407;51.830;5.684;2022-07-03T01:23:02;20.30;61.80
42755;DHT22;28407;51.830;5.684;2022-07-03T01:25:12;20.30;61.90
42755;DHT22;28407;51.830;5.684;2022-07-03T01:27:16;20.30;62.10
42755;DHT22;28407;51.830;5.684;2022-07-03T01:29:21;20.20;62.10
42755;DHT22;28407;51.830;5.684;2022-07-03T01:31:22;20.20;62.10
42755;DHT22;28407;51.830;5.684;2022-07-03T01:33:24;20.20;62.20
42755;DHT22;28407;51.830;5.684;2022-07-03T01:35:31;20.20;62.30
42755;DHT22;28407;51.830;5.684;2022-07-03T01:37:33;20.20;62.30
42755;DHT22;28407;51.830;5.684;2022-07-03T01:39:34;20.20;62.40
42755;DHT22;28407;51.830;5.684;2022-07-03T01:41:36;20.20;62.40
42755;DHT22;28407;51.830;5.684;2022-07-03T01:43:46;20.20;62.50
42755;DHT22;28407;51.830;5.684;2022-07-03T01:45:47;20.20;62.50
42755;DHT22;28407;51.830;5.684;2022-07-03T01:47:48;20.20;62.50
42755;DHT22;28407;51.830;5.684;2022-07-03T01:49:49;20.10;62.40
42755;DHT22;28407;51.830;5.684;2022-07-03T01:51:50;20.10;62.50
42755;DHT22;28407;51.830;5.684;2022-07-03T01:53:51;20.10;62.50
42755;DHT22;28407;51.830;5.684;2022-07-03T01:55:53;20.10;62.60
42755;DHT22;28407;51.830;5.684;2022-07-03T01:57:55;20.10;62.60
42755;DHT22;28407;51.830;5.684;2022-07-03T01:59:57;20.00;62.60
42755;DHT22;28407;51.830;5.684;2022-07-03T02:04:23;20.00;62.70
42755;DHT22;28407;51.830;5.684;2022-07-03T02:06:28;20.00;62.80
42755;DHT22;28407;51.830;5.684;2022-07-03T02:08:49;19.90;62.80
42755;DHT22;28407;51.830;5.684;2022-07-03T02:10:59;19.90;63.00
42755;DHT22;28407;51.830;5.684;2022-07-03T02:13:22;19.80;63.20
42755;DHT22;28407;51.830;5.684;2022-07-03T02:15:30;19.80;63.10
42755;DHT22;28407;51.830;5.684;2022-07-03T02:17:35;19.80;63.20
42755;DHT22;28407;51.830;5.684;2022-07-03T02:21:49;19.70;63.30
42755;DHT22;28407;51.830;5.684;2022-07-03T02:26:02;19.70;63.30
42755;DHT22;28407;51.830;5.684;2022-07-03T02:28:05;19.70;63.40
42755;DHT22;28407;51.830;5.684;2022-07-03T02:30:07;19.70;63.40
42755;DHT22;28407;51.830;5.684;2022-07-03T02:32:11;19.70;63.40
42755;DHT22;28407;51.830;5.684;2022-07-03T02:34:15;19.60;63.40
42755;DHT22;28407;51.830;5.684;2022-07-03T02:36:16;19.70;63.50
42755;DHT22;28407;51.830;5.684;2022-07-03T02:38:20;19.60;63.50
42755;DHT22;28407;51.830;5.684;2022-07-03T02:40:23;19.60;63.50
42755;DHT22;28407;51.830;5.684;2022-07-03T02:44:45;19.50;63.60
42755;DHT22;28407;51.830;5.684;2022-07-03T02:46:54;19.50;63.60
42755;DHT22;28407;51.830;5.684;2022-07-03T02:48:58;19.50;63.70
42755;DHT22;28407;51.830;5.684;2022-07-03T02:51:02;19.50;63.70
42755;DHT22;28407;51.830;5.684;2022-07-03T02:53:06;19.40;63.70
42755;DHT22;28407;51.830;5.684;2022-07-03T02:57:26;19.40;64.50
42755;DHT22;28407;51.830;5.684;2022-07-03T03:01:49;19.40;63.90
42755;DHT22;28407;51.830;5.684;2022-07-03T03:06:06;19.30;63.90
42755;DHT22;28407;51.830;5.684;2022-07-03T03:08:11;19.30;64.00
42755;DHT22;28407;51.830;5.684;2022-07-03T03:10:12;19.30;64.00
42755;DHT22;28407;51.830;5.684;2022-07-03T03:12:15;19.30;64.10
42755;DHT22;28407;51.830;5.684;2022-07-03T03:14:19;19.30;64.10
42755;DHT22;28407;51.830;5.684;2022-07-03T03:16:23;19.20;64.70
42755;DHT22;28407;51.830;5.684;2022-07-03T03:18:23;19.20;64.10
42755;DHT22;28407;51.830;5.684;2022-07-03T03:20:29;19.20;64.20
42755;DHT22;28407;51.830;5.684;2022-07-03T03:24:49;19.10;64.20
42755;DHT22;28407;51.830;5.684;2022-07-03T03:26:50;19.10;64.30
42755;DHT22;28407;51.830;5.684;2022-07-03T03:28:51;19.10;64.30
42755;DHT22;28407;51.830;5.684;2022-07-03T03:30:51;19.10;64.40
42755;DHT22;28407;51.830;5.684;2022-07-03T03:32:52;19.10;64.30
42755;DHT22;28407;51.830;5.684;2022-07-03T03:34:53;19.10;64.40
42755;DHT22;28407;51.830;5.684;2022-07-03T03:36:53;19.10;64.50
42755;DHT22;28407;51.830;5.684;2022-07-03T03:38:54;19.00;64.40
42755;DHT22;28407;51.830;5.684;2022-07-03T03:40:54;19.00;64.50
42755;DHT22;28407;51.830;5.684;2022-07-03T03:42:55;19.00;64.50
42755;DHT22;28407;51.830;5.684;2022-07-03T03:44:56;19.00;64.50
42755;DHT22;28407;51.830;5.684;2022-07-03T03:46:56;19.00;64.60
42755;DHT22;28407;51.830;5.684;2022-07-03T03:48:57;19.00;64.60
42755;DHT22;28407;51.830;5.684;2022-07-03T03:50:58;19.00;64.70
42755;DHT22;28407;51.830;5.684;2022-07-03T03:52:59;19.00;64.60
42755;DHT22;28407;51.830;5.684;2022-07-03T03:54:59;19.00;64.70
42755;DHT22;28407;51.830;5.684;2022-07-03T03:57:16;19.00;64.70
42755;DHT22;28407;51.830;5.684;2022-07-03T03:59:16;19.00;64.70
42755;DHT22;28407;51.830;5.684;2022-07-03T04:01:17;19.00;64.80
42755;DHT22;28407;51.830;5.684;2022-07-03T04:03:17;19.00;64.90
42755;DHT22;28407;51.830;5.684;2022-07-03T04:05:18;18.90;64.90
42755;DHT22;28407;51.830;5.684;2022-07-03T04:07:19;18.90;64.90
42755;DHT22;28407;51.830;5.684;2022-07-03T04:09:19;18.90;64.90
42755;DHT22;28407;51.830;5.684;2022-07-03T04:11:20;18.90;64.90
42755;DHT22;28407;51.830;5.684;2022-07-03T04:13:20;18.90;65.00
42755;DHT22;28407;51.830;5.684;2022-07-03T04:15:21;18.90;65.00
42755;DHT22;28407;51.830;5.684;2022-07-03T04:17:21;18.90;65.10
42755;DHT22;28407;51.830;5.684;2022-07-03T04:19:22;18.90;65.80
42755;DHT22;28407;51.830;5.684;2022-07-03T04:21:23;18.90;65.20
42755;DHT22;28407;51.830;5.684;2022-07-03T04:23:23;18.90;65.10
42755;DHT22;28407;51.830;5.684;2022-07-03T04:25:24;18.90;65.20
42755;DHT22;28407;51.830;5.684;2022-07-03T04:27:24;18.90;65.30
42755;DHT22;28407;51.830;5.684;2022-07-03T04:29:25;18.90;65.30
42755;DHT22;28407;51.830;5.684;2022-07-03T04:31:25;18.90;65.30
42755;DHT22;28407;51.830;5.684;2022-07-03T04:33:29;18.90;65.30
42755;DHT22;28407;51.830;5.684;2022-07-03T04:35:30;18.90;65.30
42755;DHT22;28407;51.830;5.684;2022-07-03T04:37:30;18.90;65.40
42755;DHT22;28407;51.830;5.684;2022-07-03T04:39:31;18.90;65.40
42755;DHT22;28407;51.830;5.684;2022-07-03T04:41:31;18.90;65.40
42755;DHT22;28407;51.830;5.684;2022-07-03T04:43:32;18.80;65.40
42755;DHT22;28407;51.830;5.684;2022-07-03T04:45:32;18.80;65.40
42755;DHT22;28407;51.830;5.684;2022-07-03T04:47:33;18.90;65.50
42755;DHT22;28407;51.830;5.684;2022-07-03T04:49:33;18.90;65.50
42755;DHT22;28407;51.830;5.684;2022-07-03T04:51:34;18.90;65.50
42755;DHT22;28407;51.830;5.684;2022-07-03T04:53:35;18.90;65.40
42755;DHT22;28407;51.830;5.684;2022-07-03T04:55:35;18.90;65.40
42755;DHT22;28407;51.830;5.684;2022-07-03T04:57:36;19.00;65.40
42755;DHT22;28407;51.830;5.684;2022-07-03T04:59:37;19.00;65.40
42755;DHT22;28407;51.830;5.684;2022-07-03T05:01:37;19.10;65.40
42755;DHT22;28407;51.830;5.684;2022-07-03T05:03:38;19.10;65.70
42755;DHT22;28407;51.830;5.684;2022-07-03T05:05:38;19.10;65.30
42755;DHT22;28407;51.830;5.684;2022-07-03T05:07:39;19.20;65.30
42755;DHT22;28407;51.830;5.684;2022-07-03T05:09:39;19.20;65.20
42755;DHT22;28407;51.830;5.684;2022-07-03T05:11:40;19.20;65.10
42755;DHT22;28407;51.830;5.684;2022-07-03T05:13:41;19.30;65.00
42755;DHT22;28407;51.830;5.684;2022-07-03T05:15:41;19.30;65.00
42755;DHT22;28407;51.830;5.684;2022-07-03T05:17:42;19.40;65.00
42755;DHT22;28407;51.830;5.684;2022-07-03T05:19:43;19.40;65.00
42755;DHT22;28407;51.830;5.684;2022-07-03T05:21:43;19.40;65.00
42755;DHT22;28407;51.830;5.684;2022-07-03T05:23:44;19.40;64.90
42755;DHT22;28407;51.830;5.684;2022-07-03T05:25:44;19.40;64.90
42755;DHT22;28407;51.830;5.684;2022-07-03T05:27:45;19.50;65.00
42755;DHT22;28407;51.830;5.684;2022-07-03T05:29:46;19.50;65.00
42755;DHT22;28407;51.830;5.684;2022-07-03T05:31:46;19.50;65.10
42755;DHT22;28407;51.830;5.684;2022-07-03T05:33:47;19.50;65.10
42755;DHT22;28407;51.830;5.684;2022-07-03T05:35:47;19.50;65.20
42755;DHT22;28407;51.830;5.684;2022-07-03T05:37:48;19.50;65.10
42755;DHT22;28407;51.830;5.684;2022-07-03T05:39:49;19.50;65.10
42755;DHT22;28407;51.830;5.684;2022-07-03T05:41:49;19.60;65.20
42755;DHT22;28407;51.830;5.684;2022-07-03T05:43:50;19.60;65.10
42755;DHT22;28407;51.830;5.684;2022-07-03T05:45:50;19.60;65.10
42755;DHT22;28407;51.830;5.684;2022-07-03T05:47:51;19.60;65.00
42755;DHT22;28407;51.830;5.684;2022-07-03T05:49:51;19.60;65.00
42755;DHT22;28407;51.830;5.684;2022-07-03T05:51:52;19.70;65.00
42755;DHT22;28407;51.830;5.684;2022-07-03T05:53:52;19.70;64.90
42755;DHT22;28407;51.830;5.684;2022-07-03T05:55:53;19.80;64.90
42755;DHT22;28407;51.830;5.684;2022-07-03T05:57:54;19.70;64.80
42755;DHT22;28407;51.830;5.684;2022-07-03T05:59:54;19.80;64.90
42755;DHT22;28407;51.830;5.684;2022-07-03T06:01:55;19.80;64.90
42755;DHT22;28407;51.830;5.684;2022-07-03T06:03:55;19.80;64.80
42755;DHT22;28407;51.830;5.684;2022-07-03T06:05:56;19.80;64.80
42755;DHT22;28407;51.830;5.684;2022-07-03T06:07:56;19.90;64.90
42755;DHT22;28407;51.830;5.684;2022-07-03T06:09:57;19.80;64.80
42755;DHT22;28407;51.830;5.684;2022-07-03T06:11:57;19.90;64.80
42755;DHT22;28407;51.830;5.684;2022-07-03T06:13:58;19.90;64.80
42755;DHT22;28407;51.830;5.684;2022-07-03T06:15:58;19.90;64.80
42755;DHT22;28407;51.830;5.684;2022-07-03T06:17:59;19.90;64.80
42755;DHT22;28407;51.830;5.684;2022-07-03T06:20:00;19.90;64.70
42755;DHT22;28407;51.830;5.684;2022-07-03T06:22:00;20.00;64.80
42755;DHT22;28407;51.830;5.684;2022-07-03T06:24:01;20.00;64.70
42755;DHT22;28407;51.830;5.684;2022-07-03T06:26:01;20.00;64.60
42755;DHT22;28407;51.830;5.684;2022-07-03T06:28:02;20.00;64.60
42755;DHT22;28407;51.830;5.684;2022-07-03T06:30:02;20.10;64.60
42755;DHT22;28407;51.830;5.684;2022-07-03T06:32:03;20.10;64.60
42755;DHT22;28407;51.830;5.684;2022-07-03T06:34:04;20.10;64.60
42755;DHT22;28407;51.830;5.684;2022-07-03T06:36:04;20.10;64.50
42755;DHT22;28407;51.830;5.684;2022-07-03T06:38:05;20.10;64.50
42755;DHT22;28407;51.830;5.684;2022-07-03T06:40:06;20.10;64.50
42755;DHT22;28407;51.830;5.684;2022-07-03T06:42:06;20.20;64.50
42755;DHT22;28407;51.830;5.684;2022-07-03T06:44:07;20.20;64.50
42755;DHT22;28407;51.830;5.684;2022-07-03T06:46:07;20.20;64.50
42755;DHT22;28407;51.830;5.684;2022-07-03T06:48:08;20.20;64.50
42755;DHT22;28407;51.830;5.684;2022-07-03T06:50:09;20.20;64.50
42755;DHT22;28407;51.830;5.684;2022-07-03T06:52:09;20.20;64.50
42755;DHT22;28407;51.830;5.684;2022-07-03T06:54:10;20.20;64.40
42755;DHT22;28407;51.830;5.684;2022-07-03T06:56:10;20.20;64.40
42755;DHT22;28407;51.830;5.684;2022-07-03T06:58:11;20.30;64.40
42755;DHT22;28407;51.830;5.684;2022-07-03T07:00:12;20.30;64.40
42755;DHT22;28407;51.830;5.684;2022-07-03T07:02:12;20.30;64.40
42755;DHT22;28407;51.830;5.684;2022-07-03T07:04:13;20.30;64.40
42755;DHT22;28407;51.830;5.684;2022-07-03T07:06:13;20.40;64.40
42755;DHT22;28407;51.830;5.684;2022-07-03T07:08:14;20.40;64.30
42755;DHT22;28407;51.830;5.684;2022-07-03T07:10:15;20.40;64.30
42755;DHT22;28407;51.830;5.684;2022-07-03T07:12:15;20.40;64.20
42755;DHT22;28407;51.830;5.684;2022-07-03T07:14:16;20.50;64.20
42755;DHT22;28407;51.830;5.684;2022-07-03T07:16:16;20.50;64.20
42755;DHT22;28407;51.830;5.684;2022-07-03T07:18:17;20.50;64.20
42755;DHT22;28407;51.830;5.684;2022-07-03T07:20:18;20.50;64.10
42755;DHT22;28407;51.830;5.684;2022-07-03T07:22:18;20.50;64.10
42755;DHT22;28407;51.830;5.684;2022-07-03T07:24:19;20.50;64.10
42755;DHT22;28407;51.830;5.684;2022-07-03T07:26:19;20.60;64.10
42755;DHT22;28407;51.830;5.684;2022-07-03T07:28:22;20.60;64.10
42755;DHT22;28407;51.830;5.684;2022-07-03T07:30:23;20.60;64.10
42755;DHT22;28407;51.830;5.684;2022-07-03T07:32:24;20.60;64.00
42755;DHT22;28407;51.830;5.684;2022-07-03T07:34:24;20.70;64.00
42755;DHT22;28407;51.830;5.684;2022-07-03T07:36:25;20.70;64.00
42755;DHT22;28407;51.830;5.684;2022-07-03T07:38:25;20.70;63.90
42755;DHT22;28407;51.830;5.684;2022-07-03T07:40:26;20.70;63.90
42755;DHT22;28407;51.830;5.684;2022-07-03T07:42:26;20.80;63.90
42755;DHT22;28407;51.830;5.684;2022-07-03T07:44:28;20.80;63.90
42755;DHT22;28407;51.830;5.684;2022-07-03T07:46:29;20.80;63.90
42755;DHT22;28407;51.830;5.684;2022-07-03T07:48:29;20.80;63.80
42755;DHT22;28407;51.830;5.684;2022-07-03T07:50:30;20.80;63.80
42755;DHT22;28407;51.830;5.684;2022-07-03T07:52:31;20.90;63.80
42755;DHT22;28407;51.830;5.684;2022-07-03T07:54:32;20.90;63.80
42755;DHT22;28407;51.830;5.684;2022-07-03T07:56:32;20.90;63.70
42755;DHT22;28407;51.830;5.684;2022-07-03T07:58:33;20.90;63.70
42755;DHT22;28407;51.830;5.684;2022-07-03T08:00:33;20.90;63.60
42755;DHT22;28407;51.830;5.684;2022-07-03T08:02:34;21.00;63.60
42755;DHT22;28407;51.830;5.684;2022-07-03T08:04:53;21.10;63.60
42755;DHT22;28407;51.830;5.684;2022-07-03T08:07:12;21.10;63.60
42755;DHT22;28407;51.830;5.684;2022-07-03T08:09:13;21.10;63.50
42755;DHT22;28407;51.830;5.684;2022-07-03T08:11:13;21.10;63.40
42755;DHT22;28407;51.830;5.684;2022-07-03T08:13:15;21.20;63.40
42755;DHT22;28407;51.830;5.684;2022-07-03T08:15:15;21.20;63.30
42755;DHT22;28407;51.830;5.684;2022-07-03T08:17:16;21.20;63.20
42755;DHT22;28407;51.830;5.684;2022-07-03T08:19:17;21.20;63.20
42755;DHT22;28407;51.830;5.684;2022-07-03T08:21:17;21.20;63.80
42755;DHT22;28407;51.830;5.684;2022-07-03T08:23:18;21.20;63.10
42755;DHT22;28407;51.830;5.684;2022-07-03T08:25:18;21.30;63.00
42755;DHT22;28407;51.830;5.684;2022-07-03T08:27:19;21.30;62.90
42755;DHT22;28407;51.830;5.684;2022-07-03T08:29:19;21.40;63.00
42755;DHT22;28407;51.830;5.684;2022-07-03T08:31:20;21.40;62.80
42755;DHT22;28407;51.830;5.684;2022-07-03T08:33:23;21.40;62.80
42755;DHT22;28407;51.830;5.684;2022-07-03T08:35:23;21.40;62.70
42755;DHT22;28407;51.830;5.684;2022-07-03T08:37:25;21.50;62.70
42755;DHT22;28407;51.830;5.684;2022-07-03T08:39:25;21.50;62.70
42755;DHT22;28407;51.830;5.684;2022-07-03T08:41:26;21.50;62.60
42755;DHT22;28407;51.830;5.684;2022-07-03T08:43:27;21.50;62.50
42755;DHT22;28407;51.830;5.684;2022-07-03T08:45:27;21.60;62.50
42755;DHT22;28407;51.830;5.684;2022-07-03T08:47:29;21.60;62.40
42755;DHT22;28407;51.830;5.684;2022-07-03T08:49:32;21.70;62.30
42755;DHT22;28407;51.830;5.684;2022-07-03T08:51:33;21.80;62.20
42755;DHT22;28407;51.830;5.684;2022-07-03T08:53:34;21.80;62.70
42755;DHT22;28407;51.830;5.684;2022-07-03T08:55:35;21.90;62.00
42755;DHT22;28407;51.830;5.684;2022-07-03T08:57:36;21.90;62.00
42755;DHT22;28407;51.830;5.684;2022-07-03T08:59:37;21.90;61.90
42755;DHT22;28407;51.830;5.684;2022-07-03T09:01:38;22.00;61.90
42755;DHT22;28407;51.830;5.684;2022-07-03T09:03:42;22.00;61.90
42755;DHT22;28407;51.830;5.684;2022-07-03T09:05:43;22.00;61.80
42755;DHT22;28407;51.830;5.684;2022-07-03T09:07:44;22.00;61.80
42755;DHT22;28407;51.830;5.684;2022-07-03T09:09:45;22.10;61.80
42755;DHT22;28407;51.830;5.684;2022-07-03T09:11:46;22.10;62.40
42755;DHT22;28407;51.830;5.684;2022-07-03T09:13:47;22.20;61.70
42755;DHT22;28407;51.830;5.684;2022-07-03T09:15:48;22.20;61.60
42755;DHT22;28407;51.830;5.684;2022-07-03T09:17:56;22.20;61.40
42755;DHT22;28407;51.830;5.684;2022-07-03T09:20:00;22.30;61.40
42755;DHT22;28407;51.830;5.684;2022-07-03T09:22:01;22.40;61.40
42755;DHT22;28407;51.830;5.684;2022-07-03T09:24:05;22.40;61.20
42755;DHT22;28407;51.830;5.684;2022-07-03T09:26:11;22.50;61.10
42755;DHT22;28407;51.830;5.684;2022-07-03T09:28:12;22.50;61.10
42755;DHT22;28407;51.830;5.684;2022-07-03T09:30:13;22.60;61.00
42755;DHT22;28407;51.830;5.684;2022-07-03T09:32:13;22.60;60.80
42755;DHT22;28407;51.830;5.684;2022-07-03T09:34:14;22.70;60.80
42755;DHT22;28407;51.830;5.684;2022-07-03T09:36:14;22.80;60.80
42755;DHT22;28407;51.830;5.684;2022-07-03T09:38:15;22.80;60.60
42755;DHT22;28407;51.830;5.684;2022-07-03T09:40:16;22.90;60.60
42755;DHT22;28407;51.830;5.684;2022-07-03T09:42:16;22.90;60.50
42755;DHT22;28407;51.830;5.684;2022-07-03T09:46:55;23.00;60.40
42755;DHT22;28407;51.830;5.684;2022-07-03T09:49:05;23.10;60.20
42755;DHT22;28407;51.830;5.684;2022-07-03T09:51:28;23.20;60.20
42755;DHT22;28407;51.830;5.684;2022-07-03T09:53:28;23.20;60.10
42755;DHT22;28407;51.830;5.684;2022-07-03T09:55:28;23.20;60.10
42755;DHT22;28407;51.830;5.684;2022-07-03T09:57:29;23.30;60.10
42755;DHT22;28407;51.830;5.684;2022-07-03T09:59:30;23.30;60.10
42755;DHT22;28407;51.830;5.684;2022-07-03T10:01:31;23.30;60.00
42755;DHT22;28407;51.830;5.684;2022-07-03T10:03:31;23.40;59.90
42755;DHT22;28407;51.830;5.684;2022-07-03T10:05:36;23.50;59.80
42755;DHT22;28407;51.830;5.684;2022-07-03T10:07:49;23.50;59.70
42755;DHT22;28407;51.830;5.684;2022-07-03T10:09:49;23.60;59.70
42755;DHT22;28407;51.830;5.684;2022-07-03T10:11:50;23.60;59.60
42755;DHT22;28407;51.830;5.684;2022-07-03T10:13:51;23.70;59.50
42755;DHT22;28407;51.830;5.684;2022-07-03T10:15:51;23.80;59.50
42755;DHT22;28407;51.830;5.684;2022-07-03T10:17:54;23.80;59.30
42755;DHT22;28407;51.830;5.684;2022-07-03T10:19:55;23.90;59.10
42755;DHT22;28407;51.830;5.684;2022-07-03T10:22:02;24.00;59.00
42755;DHT22;28407;51.830;5.684;2022-07-03T10:24:03;24.00;58.90
42755;DHT22;28407;51.830;5.684;2022-07-03T10:26:06;24.10;58.90
42755;DHT22;28407;51.830;5.684;2022-07-03T10:28:08;24.10;58.90
42755;DHT22;28407;51.830;5.684;2022-07-03T10:30:11;24.20;58.80
42755;DHT22;28407;51.830;5.684;2022-07-03T10:32:12;24.30;58.60
42755;DHT22;28407;51.830;5.684;2022-07-03T10:34:20;24.40;58.60
42755;DHT22;28407;51.830;5.684;2022-07-03T10:36:21;24.50;58.50
42755;DHT22;28407;51.830;5.684;2022-07-03T10:43:00;24.80;58.10
42755;DHT22;28407;51.830;5.684;2022-07-03T10:45:21;24.90;57.90
42755;DHT22;28407;51.830;5.684;2022-07-03T10:47:55;25.00;57.80
42755;DHT22;28407;51.830;5.684;2022-07-03T10:50:01;25.00;57.60
42755;DHT22;28407;51.830;5.684;2022-07-03T10:52:03;25.10;57.60
42755;DHT22;28407;51.830;5.684;2022-07-03T10:56:16;25.20;57.50
42755;DHT22;28407;51.830;5.684;2022-07-03T10:58:16;25.20;57.60
42755;DHT22;28407;51.830;5.684;2022-07-03T11:00:17;25.10;57.50
42755;DHT22;28407;51.830;5.684;2022-07-03T11:02:37;25.20;57.60
42755;DHT22;28407;51.830;5.684;2022-07-03T11:09:02;25.20;57.50
42755;DHT22;28407;51.830;5.684;2022-07-03T11:11:04;25.30;57.30
42755;DHT22;28407;51.830;5.684;2022-07-03T11:16:02;25.50;57.10
42755;DHT22;28407;51.830;5.684;2022-07-03T11:20:24;25.60;56.90
42755;DHT22;28407;51.830;5.684;2022-07-03T11:22:25;25.60;57.00
42755;DHT22;28407;51.830;5.684;2022-07-03T11:26:33;25.60;56.80
42755;DHT22;28407;51.830;5.684;2022-07-03T11:30:34;25.80;56.70
42755;DHT22;28407;51.830;5.684;2022-07-03T11:32:42;25.90;56.60
42755;DHT22;28407;51.830;5.684;2022-07-03T11:34:43;26.00;56.50
42755;DHT22;28407;51.830;5.684;2022-07-03T11:36:43;26.00;56.30
42755;DHT22;28407;51.830;5.684;2022-07-03T11:38:45;26.00;56.30
42755;DHT22;28407;51.830;5.684;2022-07-03T11:40:46;26.00;56.30
42755;DHT22;28407;51.830;5.684;2022-07-03T11:42:48;26.10;56.30
42755;DHT22;28407;51.830;5.684;2022-07-03T11:44:48;26.20;56.30
42755;DHT22;28407;51.830;5.684;2022-07-03T11:46:50;26.20;56.20
42755;DHT22;28407;51.830;5.684;2022-07-03T11:51:10;26.30;56.00
42755;DHT22;28407;51.830;5.684;2022-07-03T11:53:20;26.30;55.90
42755;DHT22;28407;51.830;5.684;2022-07-03T11:55:23;26.40;55.80
42755;DHT22;28407;51.830;5.684;2022-07-03T11:57:25;26.40;55.70
42755;DHT22;28407;51.830;5.684;2022-07-03T11:59:26;26.40;55.60
42755;DHT22;28407;51.830;5.684;2022-07-03T12:01:29;26.50;55.60
42755;DHT22;28407;51.830;5.684;2022-07-03T12:03:30;26.50;55.50
42755;DHT22;28407;51.830;5.684;2022-07-03T12:05:30;26.50;55.40
42755;DHT22;28407;51.830;5.684;2022-07-03T12:07:31;26.60;55.40
42755;DHT22;28407;51.830;5.684;2022-07-03T12:09:32;26.70;55.20
42755;DHT22;28407;51.830;5.684;2022-07-03T12:11:33;26.80;55.10
42755;DHT22;28407;51.830;5.684;2022-07-03T12:13:34;26.90;55.00
42755;DHT22;28407;51.830;5.684;2022-07-03T12:15:35;27.00;54.90
42755;DHT22;28407;51.830;5.684;2022-07-03T12:17:35;27.00;54.70
42755;DHT22;28407;51.830;5.684;2022-07-03T12:19:36;27.10;54.70
42755;DHT22;28407;51.830;5.684;2022-07-03T12:21:38;27.20;54.50
42755;DHT22;28407;51.830;5.684;2022-07-03T12:23:46;27.20;54.50
42755;DHT22;28407;51.830;5.684;2022-07-03T12:25:47;27.20;54.40
42755;DHT22;28407;51.830;5.684;2022-07-03T12:27:48;27.20;54.50
42755;DHT22;28407;51.830;5.684;2022-07-03T12:29:48;27.20;54.40
42755;DHT22;28407;51.830;5.684;2022-07-03T12:31:51;27.30;54.30
42755;DHT22;28407;51.830;5.684;2022-07-03T12:33:52;27.30;54.20
42755;DHT22;28407;51.830;5.684;2022-07-03T12:36:03;27.40;54.10
42755;DHT22;28407;51.830;5.684;2022-07-03T12:38:04;27.60;54.00
42755;DHT22;28407;51.830;5.684;2022-07-03T12:40:08;27.70;53.70
42755;DHT22;28407;51.830;5.684;2022-07-03T12:42:19;27.80;53.40
42755;DHT22;28407;51.830;5.684;2022-07-03T12:44:20;27.90;53.30
42755;DHT22;28407;51.830;5.684;2022-07-03T12:48:21;27.90;53.10
42755;DHT22;28407;51.830;5.684;2022-07-03T12:50:22;27.80;53.10
42755;DHT22;28407;51.830;5.684;2022-07-03T12:52:22;27.80;53.10
42755;DHT22;28407;51.830;5.684;2022-07-03T12:54:30;27.90;53.10
42755;DHT22;28407;51.830;5.684;2022-07-03T12:56:32;28.00;52.90
42755;DHT22;28407;51.830;5.684;2022-07-03T12:58:36;28.00;52.80
42755;DHT22;28407;51.830;5.684;2022-07-03T13:00:55;28.00;52.70
42755;DHT22;28407;51.830;5.684;2022-07-03T13:02:55;28.00;52.60
42755;DHT22;28407;51.830;5.684;2022-07-03T13:04:57;28.10;52.60
42755;DHT22;28407;51.830;5.684;2022-07-03T13:07:05;28.20;52.60
42755;DHT22;28407;51.830;5.684;2022-07-03T13:09:06;28.10;52.40
42755;DHT22;28407;51.830;5.684;2022-07-03T13:11:06;28.10;52.40
42755;DHT22;28407;51.830;5.684;2022-07-03T13:13:07;28.10;52.50
42755;DHT22;28407;51.830;5.684;2022-07-03T13:15:07;28.10;52.60
42755;DHT22;28407;51.830;5.684;2022-07-03T13:17:08;28.20;52.50
42755;DHT22;28407;51.830;5.684;2022-07-03T13:19:09;28.30;52.40
42755;DHT22;28407;51.830;5.684;2022-07-03T13:21:10;28.50;52.20
42755;DHT22;28407;51.830;5.684;2022-07-03T13:23:11;28.60;51.90
42755;DHT22;28407;51.830;5.684;2022-07-03T13:25:11;28.70;51.70
42755;DHT22;28407;51.830;5.684;2022-07-03T13:27:12;28.80;51.60
42755;DHT22;28407;51.830;5.684;2022-07-03T13:29:12;28.80;51.50
42755;DHT22;28407;51.830;5.684;2022-07-03T13:31:13;28.90;51.50
42755;DHT22;28407;51.830;5.684;2022-07-03T13:33:14;28.90;51.50
42755;DHT22;28407;51.830;5.684;2022-07-03T13:35:14;28.90;51.40
42755;DHT22;28407;51.830;5.684;2022-07-03T13:37:15;29.00;51.30
42755;DHT22;28407;51.830;5.684;2022-07-03T13:39:16;29.00;51.20
42755;DHT22;28407;51.830;5.684;2022-07-03T13:41:16;29.10;51.20
42755;DHT22;28407;51.830;5.684;2022-07-03T13:43:19;29.10;51.20
42755;DHT22;28407;51.830;5.684;2022-07-03T13:45:19;29.10;51.10